sensor_id;sensor_type;location;lat;lon;timestamp;P1;durP1;ratioP1;P2;durP2;ratioP2
11422;SDS011;5768;51.476;7.210;2023-07-30T00:03:17;5.80;;;4.10;;
11422;SDS011;5768;51.476;7.210;2023-07-30T00:08:19;7.55;;;3.78;;
11422;SDS011;5768;51.476;7.210;2023-07-30T00:13:23;6.03;;;3.60;;
11422;SDS011;5768;51.476;7.210;2023-07-30T00:18:25;5.32;;;3.63;;
11422;SDS011;5768;51.476;7.210;2023-07-30T00:23:27;7.60;;;3.30;;
11422;SDS011;5768;51.476;7.210;2023-07-30T00:28:31;4.47;;;3.55;;
11422;SDS011;5768;51.476;7.210;2023-07-30T00:33:33;4.60;;;3.83;;
11422;SDS011;5768;51.476;7.210;2023-07-30T00:38:35;8.30;;;3.65;;
11422;SDS011;5768;51.476;7.210;2023-07-30T00:43:39;6.50;;;3.17;;
11422;SDS011;5768;51.476;7.210;2023-07-30T00:48:41;4.93;;;3.30;;
11422;SDS011;5768;51.476;7.210;2023-07-30T00:53:44;7.93;;;3.38;;
11422;SDS011;5768;51.476;7.210;2023-07-30T00:58:48;6.82;;;3.28;;
11422;SDS011;5768;51.476;7.210;2023-07-30T01:03:50;5.25;;;3.22;;
11422;SDS011;5768;51.476;7.210;2023-07-30T01:08:53;6.28;;;3.35;;
11422;SDS011;5768;51.476;7.210;2023-07-30T01:13:56;7.60;;;3.97;;
11422;SDS011;5768;51.476;7.210;2023-07-30T01:19:00;5.30;;;3.60;;
11422;SDS011;5768;51.476;7.210;2023-07-30T01:24:05;6.15;;;3.60;;
11422;SDS011;5768;51.476;7.210;2023-07-30T01:29:09;5.88;;;3.47;;
11422;SDS011;5768;51.476;7.210;2023-07-30T01:34:18;8.63;;;3.88;;
11422;SDS011;5768;51.476;7.210;2023-07-30T01:39:23;10.35;;;3.90;;
11422;SDS011;5768;51.476;7.210;2023-07-30T01:44:27;5.80;;;3.45;;
11422;SDS011;5768;51.476;7.210;2023-07-30T01:49:30;7.88;;;3.67;;
11422;SDS011;5768;51.476;7.210;2023-07-30T01:54:34;5.22;;;3.55;;
11422;SDS011;5768;51.476;7.210;2023-07-30T01:59:36;6.35;;;3.78;;
11422;SDS011;5768;51.476;7.210;2023-07-30T02:04:38;7.20;;;4.07;;
11422;SDS011;5768;51.476;7.210;2023-07-30T02:09:41;6.50;;;3.58;;
11422;SDS011;5768;51.476;7.210;2023-07-30T02:14:44;8.73;;;3.90;;
11422;SDS011;5768;51.476;7.210;2023-07-30T02:19:47;8.55;;;3.55;;
11422;SDS011;5768;51.476;7.210;2023-07-30T02:24:51;7.75;;;3.28;;
11422;SDS011;5768;51.476;7.210;2023-07-30T02:29:53;6.25;;;3.47;;
11422;SDS011;5768;51.476;7.210;2023-07-30T02:34:55;7.80;;;4.20;;
11422;SDS011;5768;51.476;7.210;2023-07-30T02:39:58;8.70;;;4.05;;
11422;SDS011;5768;51.476;7.210;2023-07-30T02:45:02;8.52;;;3.72;;
11422;SDS011;5768;51.476;7.210;2023-07-30T02:50:05;5.00;;;3.53;;
11422;SDS011;5768;51.476;7.210;2023-07-30T02:55:11;9.13;;;3.75;;
11422;SDS011;5768;51.476;7.210;2023-07-30T03:00:13;8.35;;;3.80;;
11422;SDS011;5768;51.476;7.210;2023-07-30T03:05:15;5.07;;;3.55;;
11422;SDS011;5768;51.476;7.210;2023-07-30T03:10:20;6.30;;;3.55;;
11422;SDS011;5768;51.476;7.210;2023-07-30T03:15:22;7.72;;;3.70;;
11422;SDS011;5768;51.476;7.210;2023-07-30T03:20:24;8.15;;;4.10;;
11422;SDS011;5768;51.476;7.210;2023-07-30T03:25:28;7.20;;;3.40;;
11422;SDS011;5768;51.476;7.210;2023-07-30T03:30:30;7.07;;;3.50;;
11422;SDS011;5768;51.476;7.210;2023-07-30T03:35:32;7.85;;;3.60;;
11422;SDS011;5768;51.476;7.210;2023-07-30T03:40:37;5.57;;;3.53;;
11422;SDS011;5768;51.476;7.210;2023-07-30T03:45:39;6.40;;;3.53;;
11422;SDS011;5768;51.476;7.210;2023-07-30T03:50:41;12.80;;;4.00;;
11422;SDS011;5768;51.476;7.210;2023-07-30T03:55:45;7.68;;;3.80;;
11422;SDS011;5768;51.476;7.210;2023-07-30T04:00:47;5.85;;;3.70;;
11422;SDS011;5768;51.476;7.210;2023-07-30T04:05:49;5.97;;;3.75;;
11422;SDS011;5768;51.476;7.210;2023-07-30T04:10:53;11.57;;;3.70;;
11422;SDS011;5768;51.476;7.210;2023-07-30T04:15:55;8.13;;;3.50;;
11422;SDS011;5768;51.476;7.210;2023-07-30T04:20:57;6.25;;;3.40;;
11422;SDS011;5768;51.476;7.210;2023-07-30T04:26:01;9.88;;;3.45;;
11422;SDS011;5768;51.476;7.210;2023-07-30T04:31:03;5.93;;;3.53;;
11422;SDS011;5768;51.476;7.210;2023-07-30T04:36:05;7.43;;;2.97;;
11422;SDS011;5768;51.476;7.210;2023-07-30T04:41:09;8.18;;;3.40;;
11422;SDS011;5768;51.476;7.210;2023-07-30T04:46:11;5.97;;;3.20;;
11422;SDS011;5768;51.476;7.210;2023-07-30T04:51:13;7.13;;;3.30;;
11422;SDS011;5768;51.476;7.210;2023-07-30T04:56:17;7.88;;;3.17;;
11422;SDS011;5768;51.476;7.210;2023-07-30T05:01:20;5.38;;;3.20;;
11422;SDS011;5768;51.476;7.210;2023-07-30T05:06:23;8.13;;;3.13;;
11422;SDS011;5768;51.476;7.210;2023-07-30T05:11:26;4.18;;;2.55;;
11422;SDS011;5768;51.476;7.210;2023-07-30T05:16:28;7.28;;;3.20;;
11422;SDS011;5768;51.476;7.210;2023-07-30T05:21:31;8.43;;;3.05;;
11422;SDS011;5768;51.476;7.210;2023-07-30T05:26:34;6.30;;;3.03;;
11422;SDS011;5768;51.476;7.210;2023-07-30T05:31:36;6.75;;;2.97;;
11422;SDS011;5768;51.476;7.210;2023-07-30T05:36:39;6.75;;;2.95;;
11422;SDS011;5768;51.476;7.210;2023-07-30T05:41:43;5.32;;;2.80;;
11422;SDS011;5768;51.476;7.210;2023-07-30T05:46:45;7.88;;;2.63;;
11422;SDS011;5768;51.476;7.210;2023-07-30T05:51:48;8.23;;;3.10;;
11422;SDS011;5768;51.476;7.210;2023-07-30T05:56:51;6.65;;;2.88;;
11422;SDS011;5768;51.476;7.210;2023-07-30T06:01:55;7.05;;;2.85;;
11422;SDS011;5768;51.476;7.210;2023-07-30T06:06:59;8.20;;;3.20;;
11422;SDS011;5768;51.476;7.210;2023-07-30T06:12:05;9.57;;;3.72;;
11422;SDS011;5768;51.476;7.210;2023-07-30T06:17:07;8.70;;;3.30;;
11422;SDS011;5768;51.476;7.210;2023-07-30T06:22:09;7.85;;;2.80;;
11422;SDS011;5768;51.476;7.210;2023-07-30T06:27:13;7.53;;;2.95;;
11422;SDS011;5768;51.476;7.210;2023-07-30T06:32:15;5.95;;;2.53;;
11422;SDS011;5768;51.476;7.210;2023-07-30T06:37:18;5.20;;;2.50;;
11422;SDS011;5768;51.476;7.210;2023-07-30T06:42:21;5.80;;;2.30;;
11422;SDS011;5768;51.476;7.210;2023-07-30T06:47:24;7.22;;;2.67;;
11422;SDS011;5768;51.476;7.210;2023-07-30T06:52:26;5.30;;;2.00;;
11422;SDS011;5768;51.476;7.210;2023-07-30T06:57:29;4.75;;;2.53;;
11422;SDS011;5768;51.476;7.210;2023-07-30T07:02:31;7.78;;;2.47;;
11422;SDS011;5768;51.476;7.210;2023-07-30T07:07:34;6.50;;;2.20;;
11422;SDS011;5768;51.476;7.210;2023-07-30T07:12:38;6.50;;;2.20;;
11422;SDS011;5768;51.476;7.210;2023-07-30T07:17:40;6.68;;;2.35;;
11422;SDS011;5768;51.476;7.210;2023-07-30T07:22:42;6.68;;;2.53;;
11422;SDS011;5768;51.476;7.210;2023-07-30T07:27:46;6.68;;;2.15;;
11422;SDS011;5768;51.476;7.210;2023-07-30T07:32:48;7.35;;;2.45;;
11422;SDS011;5768;51.476;7.210;2023-07-30T07:37:51;4.10;;;2.10;;
11422;SDS011;5768;51.476;7.210;2023-07-30T07:42:55;4.63;;;2.50;;
11422;SDS011;5768;51.476;7.210;2023-07-30T07:47:58;6.05;;;2.70;;
11422;SDS011;5768;51.476;7.210;2023-07-30T07:53:00;6.20;;;2.45;;
11422;SDS011;5768;51.476;7.210;2023-07-30T07:58:04;8.18;;;2.25;;
11422;SDS011;5768;51.476;7.210;2023-07-30T08:03:06;6.70;;;2.50;;
11422;SDS011;5768;51.476;7.210;2023-07-30T08:08:08;10.93;;;6.43;;
11422;SDS011;5768;51.476;7.210;2023-07-30T08:13:12;6.80;;;2.70;;
11422;SDS011;5768;51.476;7.210;2023-07-30T08:18:15;10.13;;;3.10;;
11422;SDS011;5768;51.476;7.210;2023-07-30T08:23:17;7.75;;;2.88;;
11422;SDS011;5768;51.476;7.210;2023-07-30T08:28:21;7.18;;;3.05;;
11422;SDS011;5768;51.476;7.210;2023-07-30T08:33:23;7.32;;;2.80;;
11422;SDS011;5768;51.476;7.210;2023-07-30T08:38:28;6.10;;;2.80;;
11422;SDS011;5768;51.476;7.210;2023-07-30T08:43:33;6.95;;;3.00;;
11422;SDS011;5768;51.476;7.210;2023-07-30T08:48:50;9.20;;;2.75;;
11422;SDS011;5768;51.476;7.210;2023-07-30T08:54:00;8.80;;;2.78;;
11422;SDS011;5768;51.476;7.210;2023-07-30T08:59:09;6.78;;;2.90;;
11422;SDS011;5768;51.476;7.210;2023-07-30T09:04:25;5.65;;;2.20;;
11422;SDS011;5768;51.476;7.210;2023-07-30T09:09:34;7.68;;;3.08;;
11422;SDS011;5768;51.476;7.210;2023-07-30T09:15:02;8.75;;;3.20;;
11422;SDS011;5768;51.476;7.210;2023-07-30T09:20:18;6.40;;;2.53;;
11422;SDS011;5768;51.476;7.210;2023-07-30T09:25:29;6.95;;;2.75;;
11422;SDS011;5768;51.476;7.210;2023-07-30T09:30:36;7.93;;;2.35;;
11422;SDS011;5768;51.476;7.210;2023-07-30T09:35:38;9.07;;;3.05;;
11422;SDS011;5768;51.476;7.210;2023-07-30T09:40:50;9.90;;;3.28;;
11422;SDS011;5768;51.476;7.210;2023-07-30T09:46:53;9.63;;;2.88;;
11422;SDS011;5768;51.476;7.210;2023-07-30T09:52:23;6.72;;;2.75;;
11422;SDS011;5768;51.476;7.210;2023-07-30T10:04:33;6.82;;;2.42;;
11422;SDS011;5768;51.476;7.210;2023-07-30T10:10:09;6.95;;;2.30;;
11422;SDS011;5768;51.476;7.210;2023-07-30T10:28:31;5.40;;;1.98;;
11422;SDS011;5768;51.476;7.210;2023-07-30T10:33:47;5.28;;;1.90;;
11422;SDS011;5768;51.476;7.210;2023-07-30T10:39:25;6.57;;;1.75;;
11422;SDS011;5768;51.476;7.210;2023-07-30T10:44:50;3.28;;;1.52;;
11422;SDS011;5768;51.476;7.210;2023-07-30T10:50:37;5.80;;;1.83;;
11422;SDS011;5768;51.476;7.210;2023-07-30T10:55:59;4.32;;;1.60;;
11422;SDS011;5768;51.476;7.210;2023-07-30T11:01:47;4.93;;;2.03;;
11422;SDS011;5768;51.476;7.210;2023-07-30T11:07:10;3.17;;;1.58;;
11422;SDS011;5768;51.476;7.210;2023-07-30T11:12:24;2.53;;;1.60;;
11422;SDS011;5768;51.476;7.210;2023-07-30T11:17:48;6.10;;;1.77;;
11422;SDS011;5768;51.476;7.210;2023-07-30T11:23:16;4.13;;;1.63;;
11422;SDS011;5768;51.476;7.210;2023-07-30T11:28:44;5.63;;;1.70;;
11422;SDS011;5768;51.476;7.210;2023-07-30T11:33:57;6.20;;;2.08;;
11422;SDS011;5768;51.476;7.210;2023-07-30T11:39:11;3.15;;;1.58;;
11422;SDS011;5768;51.476;7.210;2023-07-30T11:44:36;5.25;;;1.60;;
11422;SDS011;5768;51.476;7.210;2023-07-30T11:49:42;3.47;;;1.30;;
11422;SDS011;5768;51.476;7.210;2023-07-30T11:55:08;3.88;;;1.73;;
11422;SDS011;5768;51.476;7.210;2023-07-30T12:00:13;4.57;;;1.75;;
11422;SDS011;5768;51.476;7.210;2023-07-30T12:25:20;3.30;;;1.55;;
11422;SDS011;5768;51.476;7.210;2023-07-30T12:31:14;3.63;;;1.80;;
11422;SDS011;5768;51.476;7.210;2023-07-30T12:36:21;3.20;;;1.30;;
11422;SDS011;5768;51.476;7.210;2023-07-30T12:41:27;3.38;;;1.40;;
11422;SDS011;5768;51.476;7.210;2023-07-30T12:47:55;4.97;;;1.48;;
11422;SDS011;5768;51.476;7.210;2023-07-30T13:19:27;2.05;;;1.00;;
11422;SDS011;5768;51.476;7.210;2023-07-30T13:24:31;1.58;;;0.90;;
11422;SDS011;5768;51.476;7.210;2023-07-30T13:29:36;2.28;;;1.00;;
11422;SDS011;5768;51.476;7.210;2023-07-30T13:34:39;5.32;;;1.40;;
11422;SDS011;5768;51.476;7.210;2023-07-30T13:39:41;4.72;;;1.40;;
11422;SDS011;5768;51.476;7.210;2023-07-30T13:44:45;2.88;;;1.17;;
11422;SDS011;5768;51.476;7.210;2023-07-30T13:49:47;2.50;;;1.45;;
11422;SDS011;5768;51.476;7.210;2023-07-30T13:54:49;5.72;;;1.60;;
11422;SDS011;5768;51.476;7.210;2023-07-30T13:59:53;3.83;;;1.65;;
11422;SDS011;5768;51.476;7.210;2023-07-30T14:04:55;3.30;;;1.70;;
11422;SDS011;5768;51.476;7.210;2023-07-30T14:09:57;2.40;;;1.33;;
11422;SDS011;5768;51.476;7.210;2023-07-30T14:15:01;4.38;;;1.80;;
11422;SDS011;5768;51.476;7.210;2023-07-30T14:20:03;4.38;;;1.67;;
11422;SDS011;5768;51.476;7.210;2023-07-30T14:25:07;3.58;;;1.67;;
11422;SDS011;5768;51.476;7.210;2023-07-30T14:30:12;2.53;;;1.20;;
11422;SDS011;5768;51.476;7.210;2023-07-30T14:35:14;2.85;;;1.50;;
11422;SDS011;5768;51.476;7.210;2023-07-30T14:40:16;3.45;;;1.55;;
11422;SDS011;5768;51.476;7.210;2023-07-30T14:45:20;3.80;;;1.50;;
11422;SDS011;5768;51.476;7.210;2023-07-30T14:50:22;4.40;;;1.65;;
11422;SDS011;5768;51.476;7.210;2023-07-30T14:55:25;4.88;;;1.63;;
11422;SDS011;5768;51.476;7.210;2023-07-30T15:00:29;3.47;;;1.70;;
11422;SDS011;5768;51.476;7.210;2023-07-30T15:05:32;3.13;;;1.50;;
11422;SDS011;5768;51.476;7.210;2023-07-30T15:10:34;3.42;;;1.70;;
11422;SDS011;5768;51.476;7.210;2023-07-30T15:15:38;3.35;;;1.55;;
11422;SDS011;5768;51.476;7.210;2023-07-30T15:20:40;3.97;;;1.75;;
11422;SDS011;5768;51.476;7.210;2023-07-30T15:25:43;4.00;;;1.80;;
11422;SDS011;5768;51.476;7.210;2023-07-30T15:30:46;2.70;;;1.50;;
11422;SDS011;5768;51.476;7.210;2023-07-30T15:35:50;3.45;;;1.23;;
11422;SDS011;5768;51.476;7.210;2023-07-30T15:40:52;2.63;;;1.65;;
11422;SDS011;5768;51.476;7.210;2023-07-30T15:45:56;4.22;;;1.73;;
11422;SDS011;5768;51.476;7.210;2023-07-30T15:51:01;2.78;;;1.40;;
11422;SDS011;5768;51.476;7.210;2023-07-30T15:56:04;3.10;;;1.48;;
11422;SDS011;5768;51.476;7.210;2023-07-30T16:01:09;3.05;;;1.55;;
11422;SDS011;5768;51.476;7.210;2023-07-30T16:06:12;3.20;;;1.70;;
11422;SDS011;5768;51.476;7.210;2023-07-30T16:11:14;5.80;;;1.92;;
11422;SDS011;5768;51.476;7.210;2023-07-30T16:16:17;4.03;;;1.70;;
11422;SDS011;5768;51.476;7.210;2023-07-30T16:21:19;4.32;;;1.60;;
11422;SDS011;5768;51.476;7.210;2023-07-30T16:26:22;3.63;;;1.60;;
11422;SDS011;5768;51.476;7.210;2023-07-30T16:31:25;4.30;;;1.67;;
11422;SDS011;5768;51.476;7.210;2023-07-30T16:36:27;5.35;;;1.92;;
11422;SDS011;5768;51.476;7.210;2023-07-30T16:41:30;4.20;;;1.88;;
11422;SDS011;5768;51.476;7.210;2023-07-30T16:46:33;5.80;;;1.95;;
11422;SDS011;5768;51.476;7.210;2023-07-30T16:51:35;4.03;;;1.40;;
11422;SDS011;5768;51.476;7.210;2023-07-30T16:56:37;3.80;;;1.85;;
11422;SDS011;5768;51.476;7.210;2023-07-30T17:01:41;2.75;;;1.30;;
11422;SDS011;5768;51.476;7.210;2023-07-30T17:06:43;4.82;;;1.60;;
11422;SDS011;5768;51.476;7.210;2023-07-30T17:11:46;6.10;;;2.10;;
11422;SDS011;5768;51.476;7.210;2023-07-30T17:16:50;3.17;;;1.38;;
11422;SDS011;5768;51.476;7.210;2023-07-30T17:21:52;5.05;;;1.83;;
11422;SDS011;5768;51.476;7.210;2023-07-30T17:26:54;4.78;;;1.95;;
11422;SDS011;5768;51.476;7.210;2023-07-30T17:31:58;3.33;;;1.50;;
11422;SDS011;5768;51.476;7.210;2023-07-30T17:37:00;4.43;;;1.58;;
11422;SDS011;5768;51.476;7.210;2023-07-30T17:42:03;4.28;;;1.65;;
11422;SDS011;5768;51.476;7.210;2023-07-30T17:47:07;3.40;;;1.33;;
11422;SDS011;5768;51.476;7.210;2023-07-30T17:52:09;3.88;;;1.60;;
11422;SDS011;5768;51.476;7.210;2023-07-30T17:57:11;3.53;;;1.50;;
11422;SDS011;5768;51.476;7.210;2023-07-30T18:02:15;7.50;;;2.25;;
11422;SDS011;5768;51.476;7.210;2023-07-30T18:07:19;2.75;;;1.40;;
11422;SDS011;5768;51.476;7.210;2023-07-30T18:12:21;3.10;;;1.50;;
11422;SDS011;5768;51.476;7.210;2023-07-30T18:17:24;4.03;;;1.85;;
11422;SDS011;5768;51.476;7.210;2023-07-30T18:22:27;5.65;;;1.80;;
11422;SDS011;5768;51.476;7.210;2023-07-30T18:27:29;3.53;;;1.63;;
11422;SDS011;5768;51.476;7.210;2023-07-30T18:32:32;3.03;;;1.65;;
11422;SDS011;5768;51.476;7.210;2023-07-30T18:37:35;2.50;;;1.38;;
11422;SDS011;5768;51.476;7.210;2023-07-30T18:42:38;5.57;;;1.50;;
11422;SDS011;5768;51.476;7.210;2023-07-30T18:47:42;3.88;;;1.50;;
11422;SDS011;5768;51.476;7.210;2023-07-30T18:52:44;3.13;;;1.50;;
11422;SDS011;5768;51.476;7.210;2023-07-30T18:57:46;3.42;;;1.98;;
11422;SDS011;5768;51.476;7.210;2023-07-30T19:02:50;4.32;;;2.25;;
11422;SDS011;5768;51.476;7.210;2023-07-30T19:07:52;4.28;;;2.35;;
11422;SDS011;5768;51.476;7.210;2023-07-30T19:12:58;3.78;;;2.13;;
11422;SDS011;5768;51.476;7.210;2023-07-30T19:18:02;4.90;;;2.30;;
11422;SDS011;5768;51.476;7.210;2023-07-30T19:23:05;4.03;;;1.90;;
11422;SDS011;5768;51.476;7.210;2023-07-30T19:28:07;5.07;;;2.53;;
11422;SDS011;5768;51.476;7.210;2023-07-30T19:33:10;8.40;;;2.47;;
11422;SDS011;5768;51.476;7.210;2023-07-30T19:38:13;6.20;;;2.50;;
11422;SDS011;5768;51.476;7.210;2023-07-30T19:43:15;3.95;;;2.38;;
11422;SDS011;5768;51.476;7.210;2023-07-30T19:48:21;4.13;;;1.98;;
11422;SDS011;5768;51.476;7.210;2023-07-30T19:53:24;4.95;;;2.60;;
11422;SDS011;5768;51.476;7.210;2023-07-30T19:58:27;4.25;;;2.45;;
11422;SDS011;5768;51.476;7.210;2023-07-30T20:03:32;2.70;;;1.60;;
11422;SDS011;5768;51.476;7.210;2023-07-30T20:08:35;4.30;;;2.42;;
11422;SDS011;5768;51.476;7.210;2023-07-30T20:13:37;4.68;;;2.63;;
11422;SDS011;5768;51.476;7.210;2023-07-30T20:18:41;4.20;;;2.50;;
11422;SDS011;5768;51.476;7.210;2023-07-30T20:23:44;3.85;;;2.33;;
11422;SDS011;5768;51.476;7.210;2023-07-30T20:28:48;3.42;;;2.28;;
11422;SDS011;5768;51.476;7.210;2023-07-30T20:33:53;2.17;;;1.58;;
11422;SDS011;5768;51.476;7.210;2023-07-30T20:38:55;3.65;;;1.80;;
11422;SDS011;5768;51.476;7.210;2023-07-30T20:44:01;3.22;;;1.92;;
11422;SDS011;5768;51.476;7.210;2023-07-30T20:49:05;2.33;;;1.83;;
11422;SDS011;5768;51.476;7.210;2023-07-30T20:54:07;5.40;;;2.22;;
11422;SDS011;5768;51.476;7.210;2023-07-30T20:59:10;3.65;;;2.17;;
11422;SDS011;5768;51.476;7.210;2023-07-30T21:04:14;4.32;;;2.67;;
11422;SDS011;5768;51.476;7.210;2023-07-30T21:09:16;2.30;;;2.00;;
11422;SDS011;5768;51.476;7.210;2023-07-30T21:14:18;4.50;;;1.98;;
11422;SDS011;5768;51.476;7.210;2023-07-30T21:19:22;2.28;;;1.95;;
11422;SDS011;5768;51.476;7.210;2023-07-30T21:24:25;2.78;;;2.20;;
11422;SDS011;5768;51.476;7.210;2023-07-30T21:29:27;4.53;;;2.33;;
11422;SDS011;5768;51.476;7.210;2023-07-30T21:34:31;4.90;;;2.97;;
11422;SDS011;5768;51.476;7.210;2023-07-30T21:39:33;3.25;;;2.90;;
11422;SDS011;5768;51.476;7.210;2023-07-30T21:44:36;5.18;;;3.00;;
11422;SDS011;5768;51.476;7.210;2023-07-30T21:49:39;3.33;;;2.72;;
11422;SDS011;5768;51.476;7.210;2023-07-30T21:54:41;3.88;;;2.95;;
11422;SDS011;5768;51.476;7.210;2023-07-30T21:59:44;5.43;;;3.33;;
11422;SDS011;5768;51.476;7.210;2023-07-30T22:04:49;5.90;;;3.78;;
11422;SDS011;5768;51.476;7.210;2023-07-30T22:09:51;6.63;;;3.72;;
11422;SDS011;5768;51.476;7.210;2023-07-30T22:14:54;6.70;;;3.47;;
11422;SDS011;5768;51.476;7.210;2023-07-30T22:19:57;5.80;;;4.18;;
11422;SDS011;5768;51.476;7.210;2023-07-30T22:24:59;6.57;;;3.17;;
11422;SDS011;5768;51.476;7.210;2023-07-30T22:30:02;6.32;;;3.17;;
11422;SDS011;5768;51.476;7.210;2023-07-30T22:35:07;6.38;;;3.15;;
11422;SDS011;5768;51.476;7.210;2023-07-30T22:40:09;3.00;;;2.42;;
11422;SDS011;5768;51.476;7.210;2023-07-30T22:45:12;7.45;;;3.75;;
11422;SDS011;5768;51.476;7.210;2023-07-30T22:50:16;5.15;;;3.30;;
11422;SDS011;5768;51.476;7.210;2023-07-30T22:55:21;9.13;;;3.78;;
11422;SDS011;5768;51.476;7.210;2023-07-30T23:00:23;7.43;;;3.75;;
11422;SDS011;5768;51.476;7.210;2023-07-30T23:05:27;5.63;;;3.58;;
11422;SDS011;5768;51.476;7.210;2023-07-30T23:10:29;6.63;;;3.65;;
11422;SDS011;5768;51.476;7.210;2023-07-30T23:15:32;8.02;;;4.20;;
11422;SDS011;5768;51.476;7.210;2023-07-30T23:20:37;6.20;;;3.53;;
11422;SDS011;5768;51.476;7.210;2023-07-30T23:25:39;6.63;;;3.08;;
11422;SDS011;5768;51.476;7.210;2023-07-30T23:30:41;3.85;;;2.90;;
11422;SDS011;5768;51.476;7.210;2023-07-30T23:35:44;5.10;;;3.33;;
11422;SDS011;5768;51.476;7.210;2023-07-30T23:40:47;3.33;;;2.22;;
11422;SDS011;5768;51.476;7.210;2023-07-30T23:45:49;5.72;;;3.72;;
11422;SDS011;5768;51.476;7.210;2023-07-30T23:50:52;4.72;;;2.70;;
11422;SDS011;5768;51.476;7.210;2023-07-30T23:55:55;8.63;;;5.03;;
